Terminal Aerodrome Forecast
Issued by NWS

Home | Current Version | Previous Version | Text Only | Print | Product List | Glossary On
Versions: 1 2 3 4 5 6 7 8 9 10 11 12 13 14 15 16 17 18 19 20 21 22 23 24 25
000
FTUS42 KCAE 252320
TAFOGB
TAF
KOGB 252320Z 2600/2624 12007KT P6SM SKC
     FM260900 00000KT 4SM BR SCT006
      TEMPO 2609/2612 2SM BR
     FM261300 VRB03KT P6SM SCT250
     FM261700 09006KT P6SM SCT050 SCT250=

USA.gov is the U.S. government's official web portal to all federal, state and local government web resources and services.